Latest Weather Observations for Katanning RS

IDW60801

Issued at 1:03 pm WST Thursday 29 September 2016 (issued every 30 minutes, with the page automatically refreshed every 10 minutes)

About weather observations | Map of weather stations | Latest weather observations for WA | Other Formats
Station Details ID: 010916 Name: KATANNING Lat: -33.69 Lon: 117.61 Height: 320.0 m
Data from the previous 72 hours. | See also: Recent months at Katanning RS
Date/Time
WST
Temp
°C
App
Temp
°C
Dew
Point
°C
Rel
Hum
%
Delta-T
°C
Wind Press
QNH
hPa
Press
MSL
hPa
Rain since
9am
mm
Dir  Spd
km/h
Gust
km/h
Spd
kts
Gust
kts
29/01:00pm 13.6 10.0 2.8 48 4.9 N 11 19 6 10 1018.4 1018.4 0.0
29/12:30pm 13.4 9.9 3.5 51 4.5 N 11 19 6 10 1019.2 1019.1 0.0
29/12:00pm 12.7 9.1 3.1 52 4.3 NNW 11 20 6 11 1019.8 1019.8 0.0
29/11:30am 12.0 8.6 1.9 50 4.4 N 9 20 5 11 1020.4 1020.4 0.0
29/11:00am 11.3 7.3 2.6 55 3.8 N 13 19 7 10 1020.6 1020.6 0.0
29/10:30am 11.2 7.3 3.5 59 3.5 NNE 13 24 7 13 1021.0 1021.0 0.0
29/10:00am 9.8 5.6 1.9 58 3.4 NNE 13 20 7 11 1021.4 1021.4 0.0
29/09:30am 10.0 6.1 3.3 63 3.0 NNE 13 22 7 12 1022.1 1022.2 0.0
29/09:00am 8.8 4.3 2.2 63 2.8 NNE 15 24 8 13 1022.3 1022.3 0.2
29/08:30am 8.4 4.8 3.1 69 2.3 N 11 15 6 8 1022.8 1022.8 0.2
29/08:00am 6.9 4.0 2.6 74 1.8 NNE 7 9 4 5 1022.6 1022.6 0.2
29/07:30am 4.7 2.6 1.7 81 1.2 NE 2 4 1 2 1022.1 1022.2 0.2
29/07:00am 3.8 2.0 1.5 85 0.9 CALM 0 0 0 0 1021.8 1021.8 0.2
29/06:30am 2.3 0.4 0.4 87 0.7 CALM 0 0 0 0 1022.0 1022.0 0.2
29/06:00am 0.1 -2.6 -2.1 85 0.8 N 2 4 1 2 1021.9 1021.9 0.2
29/05:30am 1.2 -1.0 -1.2 84 0.9 CALM 0 4 0 2 1021.8 1021.8 0.2
29/05:00am 2.1 0.1 -0.3 84 0.9 CALM 0 0 0 0 1021.8 1021.8 0.2
29/04:30am 2.2 0.2 -0.1 85 0.9 CALM 0 0 0 0 1021.6 1021.6 0.2
29/04:00am 1.9 -0.1 -0.3 85 0.8 CALM 0 0 0 0 1021.6 1021.6 0.2
29/03:30am 0.7 -1.9 -2.0 82 1.0 NE 2 4 1 2 1021.5 1021.5 0.2
29/03:00am 1.9 -1.0 -1.0 81 1.1 SSE 4 4 2 2 1021.9 1021.9 0.2
29/02:30am 2.1 -0.8 -1.2 79 1.2 SSE 4 9 2 5 1022.5 1022.5 0.2
29/02:00am 3.3 -0.4 0.2 80 1.2 SSE 9 13 5 7 1022.8 1022.8 0.2
29/01:30am 2.6 -1.1 0.0 83 1.0 SSW 9 11 5 6 1023.2 1023.2 0.2
29/01:00am 2.2 -1.2 -0.5 82 1.0 S 7 9 4 5 1023.1 1023.1 0.2
29/12:30am 2.6 -1.1 -0.3 81 1.1 SSE 9 13 5 7 1023.2 1023.2 0.2
29/12:00am 2.1 -1.4 -1.3 78 1.2 S 7 9 4 5 1023.3 1023.3 0.2
 
Date/Time
WST
Temp
°C
App
Temp
°C
Dew
Point
°C
Rel
Hum
%
Delta-T
°C
Wind Press
QNH
hPa
Press
MSL
hPa
Rain since
9am
mm
Dir  Spd
km/h
Gust
km/h
Spd
kts
Gust
kts
28/11:30pm 2.9 -0.5 -0.4 79 1.2 S 7 9 4 5 1023.4 1023.4 0.2
28/11:00pm 2.8 -0.4 -0.8 77 1.3 S 6 7 3 4 1023.7 1023.7 0.2
28/10:30pm 3.8 -0.3 0.0 76 1.5 S 11 13 6 7 1023.9 1023.9 0.2
28/10:00pm 2.2 -1.6 -1.1 79 1.2 SSW 9 11 5 6 1024.1 1024.1 0.2
28/09:30pm 2.8 -0.6 -0.6 78 1.3 SW 7 9 4 5 1024.3 1024.3 0.2
28/09:00pm 4.5 2.2 0.5 75 1.6 S 2 6 1 3 1024.2 1024.2 0.2
28/08:30pm 4.3 1.6 0.5 76 1.5 SSE 4 7 2 4 1024.1 1024.1 0.2
28/08:00pm 4.4 1.2 0.6 76 1.5 SSE 7 11 4 6 1024.1 1024.1 0.2
28/07:30pm 5.0 1.4 0.8 74 1.7 S 9 11 5 6 1023.8 1023.8 0.2
28/07:00pm 5.9 2.3 0.9 70 2.0 S 9 11 5 6 1023.5 1023.5 0.2
28/06:30pm 6.3 3.1 0.8 68 2.2 S 7 9 4 5 1023.3 1023.3 0.2
28/06:00pm 7.9 3.7 1.5 64 2.6 SSE 13 19 7 10 1023.0 1023.0 0.2
28/05:30pm 8.5 4.3 1.6 62 2.9 S 13 17 7 9 1022.7 1022.7 0.2
28/05:00pm 9.8 4.6 2.4 60 3.2 S 19 24 10 13 1022.6 1022.6 0.2
28/04:30pm 10.3 5.8 1.9 56 3.6 SSW 15 28 8 15 1022.4 1022.4 0.2
28/04:00pm 10.4 5.2 2.3 57 3.5 SSW 19 30 10 16 1022.0 1022.0 0.2
28/03:30pm 9.9 4.6 3.0 62 3.0 S 20 28 11 15 1022.0 1022.0 0.2
28/03:00pm 10.9 5.9 3.7 61 3.2 S 19 28 10 15 1021.9 1021.9 0.2
28/02:30pm 11.6 7.2 5.0 64 3.1 S 17 30 9 16 1021.8 1021.8 0.2
28/02:00pm 11.7 6.6 4.2 60 3.4 SSW 20 28 11 15 1021.7 1021.7 0.2
28/01:30pm 10.9 5.6 2.0 54 3.9 SSW 19 30 10 16 1021.7 1021.7 0.2
28/01:00pm 10.2 5.1 3.0 61 3.2 SW 19 30 10 16 1021.9 1021.9 0.2
28/12:30pm 10.8 5.8 4.5 65 2.9 S 20 28 11 15 1021.8 1021.8 0.2
28/12:00pm 10.1 4.1 3.2 62 3.0 SSW 24 37 13 20 1021.9 1021.9 0.2
28/11:30am 9.9 5.0 4.1 67 2.6 SSW 19 30 10 16 1021.9 1021.9 0.2
28/11:00am 7.2 1.2 3.4 77 1.6 S 24 35 13 19 1022.3 1022.3 0.2
28/10:30am 8.6 2.5 2.6 66 2.6 SSW 24 35 13 19 1021.7 1021.7 0.0
28/10:00am 8.3 1.6 1.5 62 2.8 S 26 35 14 19 1021.4 1021.4 0.0
28/09:30am 8.0 1.7 1.6 64 2.7 SSW 24 33 13 18 1021.1 1021.1 0.0
28/09:00am 7.5 1.3 2.0 68 2.3 SSW 24 33 13 18 1020.6 1020.6 4.0
28/08:30am 7.2 1.8 2.3 71 2.1 SSW 20 32 11 17 1020.3 1020.3 4.0
28/08:00am 6.2 0.7 2.1 75 1.7 SSW 20 33 11 18 1019.8 1019.8 4.0
28/07:30am 4.8 0.3 2.3 84 1.0 WSW 15 19 8 10 1019.4 1019.3 4.0
28/07:00am 3.6 -0.6 1.6 87 0.8 WSW 13 15 7 8 1018.8 1018.8 4.0
28/06:30am 3.2 -1.1 1.1 86 0.8 W 13 19 7 10 1018.5 1018.5 4.0
28/06:00am 3.5 -0.4 1.4 86 0.8 WSW 11 17 6 9 1018.1 1018.1 4.0
28/05:30am 3.7 -0.9 1.3 84 0.9 WSW 15 24 8 13 1017.3 1017.3 4.0
28/05:00am 3.8 -0.8 1.7 86 0.8 SW 15 24 8 13 1016.8 1016.8 4.0
28/04:30am 3.7 -0.9 1.4 85 0.9 WSW 15 22 8 12 1016.4 1016.3 4.0
28/04:00am 4.0 -0.6 1.7 85 0.9 SW 15 20 8 11 1016.0 1015.9 4.0
28/03:30am 4.3 -1.2 1.8 84 1.0 SW 20 30 11 16 1015.4 1015.4 4.0
28/03:00am 4.3 -0.7 1.5 82 1.1 SW 17 30 9 16 1015.0 1015.0 4.0
28/02:30am 4.2 -1.4 1.4 82 1.1 SW 20 30 11 16 1014.6 1014.6 4.0
28/02:00am 3.9 -0.7 1.4 84 1.0 SW 15 24 8 13 1014.4 1014.4 4.0
28/01:30am 3.9 -1.1 1.4 84 1.0 SW 17 26 9 14 1014.2 1014.2 4.0
28/01:00am 3.9 -1.1 1.4 84 1.0 WSW 17 26 9 14 1013.8 1013.7 4.0
28/12:30am 3.9 -2.1 1.3 83 1.0 WSW 22 37 12 20 1013.4 1013.3 4.0
28/12:00am 3.8 -1.8 1.5 85 0.9 WSW 20 30 11 16 1013.3 1013.2 4.0
 
Date/Time
WST
Temp
°C
App
Temp
°C
Dew
Point
°C
Rel
Hum
%
Delta-T
°C
Wind Press
QNH
hPa
Press
MSL
hPa
Rain since
9am
mm
Dir  Spd
km/h
Gust
km/h
Spd
kts
Gust
kts
27/11:30pm 3.9 -1.1 1.6 85 0.9 WSW 17 24 9 13 1013.2 1013.1 3.8
27/11:00pm 4.4 -1.1 1.8 83 1.1 WSW 20 35 11 19 1013.1 1013.0 3.8
27/10:30pm 4.9 -0.3 2.4 84 1.0 WSW 19 26 10 14 1013.0 1012.9 3.8
27/10:00pm 4.9 -0.3 2.6 85 1.0 WSW 19 32 10 17 1012.6 1012.5 3.8
27/09:30pm 4.7 -0.8 2.1 83 1.1 WSW 20 32 11 17 1012.1 1012.1 3.8
27/09:00pm 6.2 0.9 3.2 81 1.3 WSW 20 30 11 16 1011.9 1011.9 2.2
27/08:30pm 6.3 1.1 3.3 81 1.3 WSW 20 32 11 17 1011.6 1011.6 2.2
27/08:00pm 6.5 0.9 3.5 81 1.3 WSW 22 33 12 18 1011.1 1011.0 2.2
27/07:30pm 6.7 0.7 3.5 80 1.4 WSW 24 33 13 18 1010.4 1010.3 2.2
27/07:00pm 6.8 0.8 3.2 78 1.5 WSW 24 35 13 19 1009.7 1009.6 2.2
27/06:30pm 7.0 0.6 3.1 76 1.7 WSW 26 39 14 21 1009.0 1009.0 2.2
27/06:22pm 7.2 0.4 3.3 76 1.7 SW 28 50 15 27 1008.9 1008.9 2.2
27/06:00pm 8.2 3.4 4.8 79 1.5 WSW 19 30 10 16 1008.3 1008.2 2.0
27/05:30pm 8.7 2.7 5.1 78 1.6 WSW 26 37 14 20 1007.9 1007.8 2.0
27/05:00pm 9.2 2.8 5.0 75 1.9 SW 28 48 15 26 1007.4 1007.3 2.0
27/04:58pm 9.2 2.8 5.0 75 1.9 SW 28 48 15 26 1007.4 1007.3 2.0
27/04:30pm 9.2 3.5 6.8 85 1.1 WSW 26 41 14 22 1006.9 1006.8 2.0
27/04:00pm 9.4 4.2 5.4 76 1.9 W 22 33 12 18 1006.3 1006.2 1.4
27/03:30pm 8.8 4.0 5.5 80 1.5 W 20 39 11 21 1005.2 1005.1 1.4
27/03:00pm 9.5 2.8 5.5 76 1.9 WSW 30 43 16 23 1006.6 1006.5 1.0
27/02:30pm 9.8 3.6 6.0 77 1.8 WSW 28 44 15 24 1006.4 1006.3 1.0
27/02:11pm 9.7 2.2 6.2 79 1.6 WSW 35 54 19 29 1006.1 1005.9 1.0
27/02:00pm 10.0 1.7 6.3 78 1.8 WSW 39 54 21 29 1006.1 1005.9 1.0
27/01:39pm 11.0 2.6 7.5 79 1.7 W 41 59 22 32 1005.4 1005.3 0.8
27/01:30pm 11.5 3.8 7.2 75 2.1 WNW 37 57 20 31 1005.0 1004.9 0.6
27/01:11pm 13.7 6.7 6.8 63 3.4 WNW 33 67 18 36 1005.1 1005.0 0.4
27/01:00pm 15.3 8.6 8.1 62 3.7 WNW 33 48 18 26 1004.5 1004.4 0.2
27/12:30pm 14.4 7.9 8.8 69 2.9 NW 33 54 18 29 1005.5 1005.4 0.2
27/12:16pm 14.1 7.2 8.7 70 2.8 WNW 35 56 19 30 1005.7 1005.6 0.2
27/12:00pm 13.1 6.2 9.0 76 2.1 WNW 35 48 19 26 1006.4 1006.3 0.2
27/11:31am 13.1 6.7 8.4 73 2.4 NW 32 52 17 28 1007.0 1006.9 0.0
27/11:30am 13.3 6.9 8.6 73 2.4 NW 32 50 17 27 1007.0 1006.9 0.0
27/11:00am 15.8 10.2 8.8 63 3.6 NW 28 41 15 22 1007.4 1007.3 0.0
27/10:30am 15.3 10.0 9.9 70 2.9 NW 28 46 15 25 1008.2 1008.1 0.0
27/10:00am 14.1 8.0 8.1 67 3.0 NW 30 50 16 27 1008.9 1008.9 0.0
27/09:53am 14.2 7.9 7.5 64 3.4 NW 30 50 16 27 1009.0 1009.0 0.0
27/09:30am 14.3 9.1 8.9 70 2.8 NW 26 37 14 20 1009.7 1009.6 0.0
27/09:00am 13.2 7.7 9.1 76 2.1 NW 28 39 15 21 1010.3 1010.2 0.6
27/08:30am 12.1 7.4 9.1 82 1.5 NW 24 35 13 19 1010.8 1010.7 0.6
27/08:00am 11.1 6.7 8.8 86 1.2 NW 22 32 12 17 1011.1 1011.0 0.6
27/07:30am 10.7 6.6 8.8 88 1.0 NNW 20 28 11 15 1011.3 1011.2 0.6
27/07:00am 10.1 7.3 8.4 89 0.8 NW 13 19 7 10 1011.6 1011.6 0.6
27/06:30am 9.9 6.3 8.3 90 0.8 NW 17 24 9 13 1012.1 1012.1 0.6
27/06:00am 9.6 6.3 8.0 90 0.8 NW 15 22 8 12 1012.2 1012.2 0.6
27/05:30am 9.7 7.2 8.1 90 0.8 WNW 11 17 6 9 1012.7 1012.6 0.6
27/05:00am 9.5 6.6 8.1 91 0.7 NW 13 22 7 12 1012.8 1012.7 0.6
27/04:30am 9.5 6.5 7.9 90 0.8 NW 13 17 7 9 1012.9 1012.8 0.6
27/04:00am 9.3 7.1 7.7 90 0.8 NNW 9 13 5 7 1013.0 1012.9 0.6
27/03:30am 9.2 7.5 7.6 90 0.8 NW 6 9 3 5 1013.2 1013.1 0.6
27/03:00am 8.6 6.1 6.7 88 0.9 NW 9 13 5 7 1013.7 1013.6 0.6
27/02:30am 9.3 6.7 7.6 89 0.8 WNW 11 15 6 8 1013.9 1013.8 0.6
27/02:00am 9.6 6.6 7.9 89 0.8 WNW 13 19 7 10 1014.4 1014.4 0.6
27/01:30am 9.9 7.4 8.3 90 0.8 WNW 11 17 6 9 1014.8 1014.8 0.6
27/01:00am 9.7 7.2 8.1 90 0.8 WNW 11 19 6 10 1015.1 1015.1 0.6
27/12:30am 9.8 6.9 8.2 90 0.8 NW 13 22 7 12 1015.2 1015.2 0.6
27/12:00am 9.9 6.6 8.2 89 0.8 NW 15 22 8 12 1015.5 1015.5 0.6
 
Date/Time
WST
Temp
°C
App
Temp
°C
Dew
Point
°C
Rel
Hum
%
Delta-T
°C
Wind Press
QNH
hPa
Press
MSL
hPa
Rain since
9am
mm
Dir  Spd
km/h
Gust
km/h
Spd
kts
Gust
kts
26/11:30pm 9.7 7.2 8.0 89 0.8 NW 11 17 6 9 1015.9 1015.8 0.6
26/11:00pm 10.0 7.1 8.1 88 0.9 NW 13 17 7 9 1016.2 1016.1 0.6
26/10:30pm 10.1 7.6 8.2 88 0.9 NW 11 15 6 8 1016.4 1016.3 0.6
26/10:00pm 10.2 7.3 8.3 88 0.9 WNW 13 20 7 11 1016.5 1016.4 0.4
26/09:30pm 10.8 6.3 8.4 85 1.2 W 22 35 12 19 1016.8 1016.8 0.2
26/09:00pm 11.3 8.1 8.3 82 1.5 WNW 15 22 8 12 1016.7 1016.6 0.0
26/08:30pm 11.4 8.2 8.3 81 1.5 NW 15 24 8 13 1016.5 1016.4 0.0
26/08:00pm 11.6 8.6 7.9 78 1.8 WNW 13 19 7 10 1016.4 1016.3 0.0
26/07:30pm 11.7 7.6 7.8 77 1.9 NW 19 26 10 14 1015.9 1015.8 0.0
26/07:00pm 11.8 7.7 7.7 76 2.0 NW 19 30 10 16 1015.8 1015.7 0.0
26/06:30pm 11.6 7.4 7.5 76 2.0 NW 19 24 10 13 1015.5 1015.5 0.0
26/06:00pm 12.1 8.3 7.6 74 2.2 WNW 17 24 9 13 1015.7 1015.6 0.0
26/05:30pm 13.2 9.2 8.1 71 2.6 WNW 19 28 10 15 1015.5 1015.5 0.0
26/05:00pm 13.0 9.6 9.1 77 2.0 WNW 17 30 9 16 1015.8 1015.7 0.0
26/04:30pm 13.3 9.5 9.0 75 2.2 WNW 19 28 10 15 1015.4 1015.4 0.0
26/04:00pm 13.6 9.8 9.1 74 2.3 NW 19 32 10 17 1015.3 1015.3 0.0
26/03:30pm 14.8 9.0 7.8 63 3.5 WNW 28 41 15 22 1015.1 1015.1 0.0
26/03:00pm 14.1 8.9 8.9 71 2.7 NW 26 37 14 20 1015.2 1015.2 0.0
26/02:30pm 14.9 8.9 8.8 67 3.2 NW 30 48 16 26 1015.2 1015.2 0.0
26/02:28pm 14.9 8.9 8.8 67 3.2 NW 30 48 16 26 1015.1 1015.1 0.0
26/02:00pm 14.2 8.0 7.9 66 3.2 WNW 30 44 16 24 1015.4 1015.4 0.0
26/01:30pm 14.4 8.8 8.8 69 2.9 WNW 28 39 15 21 1015.7 1015.6 0.0

Other Formats:

Comma delimited format used in spreadsheet applications
http://www.bom.gov.au/fwo/IDW60801/IDW60801.94641.axf

JavaScript Object Notation format (JSON) in row-major order
http://www.bom.gov.au/fwo/IDW60801/IDW60801.94641.json